<?xml version="1.0" encoding="UTF-8" standalone="no" ?>
<gpx xmlns="http://www.topografix.com/GPX/1/1" xmlns:xsi="http://www.w3.org/2001/XMLSchema-instance" xsi:schemaLocation="http://www.topografix.com/GPX/1/1 http://www.topografix.com/GPX/1/1/gpx.xsd" version="1.1" creator="VisuGPX - https://www.visugpx.com">
  <metadata>
    <name>Toutes traces 4x4 Côté Brindas</name>
  </metadata>
  <trk>
    <name><![CDATA[Yzeron]]></name>
    <extensions>
      <line xmlns="http://www.topografix.com/GPX/gpx_style/0/2">
        <color>00FFFF</color>
        <width>4</width>
      </line>
    </extensions>
    <trkseg>
      <trkpt lat="45.70421" lon="4.57616">
        <ele>788.827</ele>
        <time>2021-06-29T21:52:35Z</time>
      </trkpt>
      <trkpt lat="45.70421" lon="4.57616">
        <ele>788.827</ele>
        <time>2021-06-29T21:52:35Z</time>
      </trkpt>
      <trkpt lat="45.70418" lon="4.57612">
        <ele>789.068</ele>
        <time>2021-06-29T21:52:37Z</time>
      </trkpt>
      <trkpt lat="45.70413" lon="4.57605">
        <ele>789.714</ele>
        <time>2021-06-29T21:52:39Z</time>
      </trkpt>
      <trkpt lat="45.70408" lon="4.57597">
        <ele>790.708</ele>
        <time>2021-06-29T21:52:41Z</time>
      </trkpt>
      <trkpt lat="45.70403" lon="4.57589">
        <ele>791.629</ele>
        <time>2021-06-29T21:52:43Z</time>
      </trkpt>
      <trkpt lat="45.704" lon="4.57579">
        <ele>792.949</ele>
        <time>2021-06-29T21:52:45Z</time>
      </trkpt>
      <trkpt lat="45.70398" lon="4.57571">
        <ele>794.152</ele>
        <time>2021-06-29T21:52:47Z</time>
      </trkpt>
      <trkpt lat="45.70395" lon="4.57564">
        <ele>795.117</ele>
        <time>2021-06-29T21:52:49Z</time>
      </trkpt>
      <trkpt lat="45.70393" lon="4.57555">
        <ele>795.872</ele>
        <time>2021-06-29T21:52:51Z</time>
      </trkpt>
      <trkpt lat="45.70391" lon="4.57546">
        <ele>796.471</ele>
        <time>2021-06-29T21:52:53Z</time>
      </trkpt>
      <trkpt lat="45.70389" lon="4.57539">
        <ele>797.127</ele>
        <time>2021-06-29T21:52:55Z</time>
      </trkpt>
      <trkpt lat="45.70387" lon="4.57532">
        <ele>797.955</ele>
        <time>2021-06-29T21:52:57Z</time>
      </trkpt>
      <trkpt lat="45.70386" lon="4.57523">
        <ele>798.671</ele>
        <time>2021-06-29T21:52:59Z</time>
      </trkpt>
      <trkpt lat="45.70383" lon="4.57514">
        <ele>799.241</ele>
        <time>2021-06-29T21:53:01Z</time>
      </trkpt>
      <trkpt lat="45.70381" lon="4.57506">
        <ele>799.915</ele>
        <time>2021-06-29T21:53:03Z</time>
      </trkpt>
      <trkpt lat="45.70379" lon="4.57498">
        <ele>801.008</ele>
        <time>2021-06-29T21:53:06Z</time>
      </trkpt>
      <trkpt lat="45.70378" lon="4.57489">
        <ele>802.024</ele>
        <time>2021-06-29T21:53:09Z</time>
      </trkpt>
      <trkpt lat="45.70375" lon="4.57482">
        <ele>802.764</ele>
        <time>2021-06-29T21:53:11Z</time>
      </trkpt>
      <trkpt lat="45.70374" lon="4.57475">
        <ele>803.147</ele>
        <time>2021-06-29T21:53:12Z</time>
      </trkpt>
      <trkpt lat="45.70372" lon="4.57467">
        <ele>803.732</ele>
        <time>2021-06-29T21:53:14Z</time>
      </trkpt>
      <trkpt lat="45.7037" lon="4.57458">
        <ele>804.117</ele>
        <time>2021-06-29T21:53:16Z</time>
      </trkpt>
      <trkpt lat="45.70369" lon="4.57449">
        <ele>804.446</ele>
        <time>2021-06-29T21:53:18Z</time>
      </trkpt>
      <trkpt lat="45.70367" lon="4.5744">
        <ele>804.842</ele>
        <time>2021-06-29T21:53:20Z</time>
      </trkpt>
      <trkpt lat="45.70366" lon="4.57428">
        <ele>805.31</ele>
        <time>2021-06-29T21:53:22Z</time>
      </trkpt>
      <trkpt lat="45.70366" lon="4.57421">
        <ele>805.536</ele>
        <time>2021-06-29T21:53:23Z</time>
      </trkpt>
      <trkpt lat="45.70366" lon="4.57412">
        <ele>806.117</ele>
        <time>2021-06-29T21:53:25Z</time>
      </trkpt>
      <trkpt lat="45.70364" lon="4.574">
        <ele>807.018</ele>
        <time>2021-06-29T21:53:28Z</time>
      </trkpt>
      <trkpt lat="45.70364" lon="4.57387">
        <ele>807.508</ele>
        <time>2021-06-29T21:53:30Z</time>
      </trkpt>
      <trkpt lat="45.70364" lon="4.5738">
        <ele>807.76</ele>
        <time>2021-06-29T21:53:31Z</time>
      </trkpt>
      <trkpt lat="45.70364" lon="4.57372">
        <ele>807.93</ele>
        <time>2021-06-29T21:53:32Z</time>
      </trkpt>
      <trkpt lat="45.70364" lon="4.57364">
        <ele>808.393</ele>
        <time>2021-06-29T21:53:34Z</time>
      </trkpt>
      <trkpt lat="45.70365" lon="4.57354">
        <ele>809.068</ele>
        <time>2021-06-29T21:53:37Z</time>
      </trkpt>
      <trkpt lat="45.70366" lon="4.57346">
        <ele>809.543</ele>
        <time>2021-06-29T21:53:39Z</time>
      </trkpt>
      <trkpt lat="45.70367" lon="4.57334">
        <ele>810.162</ele>
        <time>2021-06-29T21:53:42Z</time>
      </trkpt>
      <trkpt lat="45.70367" lon="4.57321">
        <ele>810.648</ele>
        <time>2021-06-29T21:53:44Z</time>
      </trkpt>
      <trkpt lat="45.70367" lon="4.57313">
        <ele>810.946</ele>
        <time>2021-06-29T21:53:45Z</time>
      </trkpt>
      <trkpt lat="45.70367" lon="4.57305">
        <ele>811.368</ele>
        <time>2021-06-29T21:53:46Z</time>
      </trkpt>
      <trkpt lat="45.70367" lon="4.57297">
        <ele>811.742</ele>
        <time>2021-06-29T21:53:47Z</time>
      </trkpt>
      <trkpt lat="45.70367" lon="4.57287">
        <ele>812.126</ele>
        <time>2021-06-29T21:53:48Z</time>
      </trkpt>
      <trkpt lat="45.70367" lon="4.57278">
        <ele>812.508</ele>
        <time>2021-06-29T21:53:49Z</time>
      </trkpt>
      <trkpt lat="45.70367" lon="4.57269">
        <ele>813.043</ele>
        <time>2021-06-29T21:53:50Z</time>
      </trkpt>
      <trkpt lat="45.70368" lon="4.57261">
        <ele>813.433</ele>
        <time>2021-06-29T21:53:51Z</time>
      </trkpt>
      <trkpt lat="45.70367" lon="4.57253">
        <ele>813.876</ele>
        <time>2021-06-29T21:53:52Z</time>
      </trkpt>
      <trkpt lat="45.70368" lon="4.57244">
        <ele>814.251</ele>
        <time>2021-06-29T21:53:53Z</time>
      </trkpt>
      <trkpt lat="45.70368" lon="4.57236">
        <ele>814.686</ele>
        <time>2021-06-29T21:53:54Z</time>
      </trkpt>
      <trkpt lat="45.70369" lon="4.5723">
        <ele>815.055</ele>
        <time>2021-06-29T21:53:55Z</time>
      </trkpt>
      <trkpt lat="45.70369" lon="4.57223">
        <ele>815.451</ele>
        <time>2021-06-29T21:53:56Z</time>
      </trkpt>
      <trkpt lat="45.70371" lon="4.57212">
        <ele>816.389</ele>
        <time>2021-06-29T21:53:58Z</time>
      </trkpt>
      <trkpt lat="45.7037" lon="4.57203">
        <ele>817.248</ele>
        <time>2021-06-29T21:54:00Z</time>
      </trkpt>
      <trkpt lat="45.7037" lon="4.57193">
        <ele>818.061</ele>
        <time>2021-06-29T21:54:02Z</time>
      </trkpt>
      <trkpt lat="45.70371" lon="4.57183">
        <ele>818.817</ele>
        <time>2021-06-29T21:54:04Z</time>
      </trkpt>
      <trkpt lat="45.70371" lon="4.57173">
        <ele>819.708</ele>
        <time>2021-06-29T21:54:06Z</time>
      </trkpt>
      <trkpt lat="45.7037" lon="4.57163">
        <ele>820.791</ele>
        <time>2021-06-29T21:54:08Z</time>
      </trkpt>
      <trkpt lat="45.70369" lon="4.57154">
        <ele>821.591</ele>
        <time>2021-06-29T21:54:10Z</time>
      </trkpt>
      <trkpt lat="45.70368" lon="4.57142">
        <ele>822.174</ele>
        <time>2021-06-29T21:54:12Z</time>
      </trkpt>
      <trkpt lat="45.70366" lon="4.57131">
        <ele>822.719</ele>
        <time>2021-06-29T21:54:14Z</time>
      </trkpt>
      <trkpt lat="45.70364" lon="4.5712">
        <ele>823.494</ele>
        <time>2021-06-29T21:54:16Z</time>
      </trkpt>
      <trkpt lat="45.70364" lon="4.57114">
        <ele>823.813</ele>
        <time>2021-06-29T21:54:17Z</time>
      </trkpt>
      <trkpt lat="45.70362" lon="4.57102">
        <ele>824.669</ele>
        <time>2021-06-29T21:54:19Z</time>
      </trkpt>
      <trkpt lat="45.7036" lon="4.57091">
        <ele>825.437</ele>
        <time>2021-06-29T21:54:21Z</time>
      </trkpt>
      <trkpt lat="45.70358" lon="4.5708">
        <ele>826.211</ele>
        <time>2021-06-29T21:54:23Z</time>
      </trkpt>
      <trkpt lat="45.70357" lon="4.57069">
        <ele>827.021</ele>
        <time>2021-06-29T21:54:25Z</time>
      </trkpt>
      <trkpt lat="45.70356" lon="4.57058">
        <ele>827.703</ele>
        <time>2021-06-29T21:54:27Z</time>
      </trkpt>
      <trkpt lat="45.70354" lon="4.57047">
        <ele>828.308</ele>
        <time>2021-06-29T21:54:29Z</time>
      </trkpt>
      <trkpt lat="45.70352" lon="4.57041">
        <ele>828.818</ele>
        <time>2021-06-29T21:54:31Z</time>
      </trkpt>
      <trkpt lat="45.70351" lon="4.57034">
        <ele>829.768</ele>
        <time>2021-06-29T21:54:34Z</time>
      </trkpt>
      <trkpt lat="45.7035" lon="4.57027">
        <ele>830.221</ele>
        <time>2021-06-29T21:54:36Z</time>
      </trkpt>
      <trkpt lat="45.7035" lon="4.57019">
        <ele>830.626</ele>
        <time>2021-06-29T21:54:38Z</time>
      </trkpt>
      <trkpt lat="45.70349" lon="4.5701">
        <ele>831.041</ele>
        <time>2021-06-29T21:54:40Z</time>
      </trkpt>
      <trkpt lat="45.70348" lon="4.57002">
        <ele>831.69</ele>
        <time>2021-06-29T21:54:42Z</time>
      </trkpt>
      <trkpt lat="45.70347" lon="4.56993">
        <ele>832.386</ele>
        <time>2021-06-29T21:54:44Z</time>
      </trkpt>
      <trkpt lat="45.70346" lon="4.56985">
        <ele>833.124</ele>
        <time>2021-06-29T21:54:46Z</time>
      </trkpt>
      <trkpt lat="45.70343" lon="4.56975">
        <ele>833.869</ele>
        <time>2021-06-29T21:54:48Z</time>
      </trkpt>
      <trkpt lat="45.70343" lon="4.56966">
        <ele>834.604</ele>
        <time>2021-06-29T21:54:50Z</time>
      </trkpt>
      <trkpt lat="45.7034" lon="4.56956">
        <ele>835.324</ele>
        <time>2021-06-29T21:54:52Z</time>
      </trkpt>
      <trkpt lat="45.70339" lon="4.56947">
        <ele>836.008</ele>
        <time>2021-06-29T21:54:54Z</time>
      </trkpt>
      <trkpt lat="45.70338" lon="4.56938">
        <ele>836.893</ele>
        <time>2021-06-29T21:54:56Z</time>
      </trkpt>
      <trkpt lat="45.70336" lon="4.56927">
        <ele>837.793</ele>
        <time>2021-06-29T21:54:58Z</time>
      </trkpt>
      <trkpt lat="45.70333" lon="4.56918">
        <ele>838.666</ele>
        <time>2021-06-29T21:55:00Z</time>
      </trkpt>
      <trkpt lat="45.70331" lon="4.56907">
        <ele>839.361</ele>
        <time>2021-06-29T21:55:02Z</time>
      </trkpt>
      <trkpt lat="45.70329" lon="4.569">
        <ele>839.726</ele>
        <time>2021-06-29T21:55:03Z</time>
      </trkpt>
      <trkpt lat="45.70328" lon="4.56894">
        <ele>840.015</ele>
        <time>2021-06-29T21:55:04Z</time>
      </trkpt>
      <trkpt lat="45.70328" lon="4.56887">
        <ele>840.341</ele>
        <time>2021-06-29T21:55:05Z</time>
      </trkpt>
      <trkpt lat="45.70327" lon="4.5688">
        <ele>840.689</ele>
        <time>2021-06-29T21:55:06Z</time>
      </trkpt>
      <trkpt lat="45.70327" lon="4.56874">
        <ele>840.892</ele>
        <time>2021-06-29T21:55:07Z</time>
      </trkpt>
      <trkpt lat="45.70325" lon="4.56863">
        <ele>841.173</ele>
        <time>2021-06-29T21:55:09Z</time>
      </trkpt>
      <trkpt lat="45.70324" lon="4.56854">
        <ele>841.22</ele>
        <time>2021-06-29T21:55:11Z</time>
      </trkpt>
      <trkpt lat="45.70323" lon="4.56845">
        <ele>841.208</ele>
        <time>2021-06-29T21:55:13Z</time>
      </trkpt>
      <trkpt lat="45.70321" lon="4.56836">
        <ele>841.256</ele>
        <time>2021-06-29T21:55:15Z</time>
      </trkpt>
      <trkpt lat="45.7032" lon="4.56829">
        <ele>841.236</ele>
        <time>2021-06-29T21:55:16Z</time>
      </trkpt>
      <trkpt lat="45.70318" lon="4.56819">
        <ele>841.389</ele>
        <time>2021-06-29T21:55:18Z</time>
      </trkpt>
      <trkpt lat="45.70314" lon="4.56809">
        <ele>841.484</ele>
        <time>2021-06-29T21:55:20Z</time>
      </trkpt>
      <trkpt lat="45.7031" lon="4.56798">
        <ele>841.689</ele>
        <time>2021-06-29T21:55:22Z</time>
      </trkpt>
      <trkpt lat="45.70305" lon="4.56789">
        <ele>842.018</ele>
        <time>2021-06-29T21:55:24Z</time>
      </trkpt>
      <trkpt lat="45.70301" lon="4.56781">
        <ele>842.534</ele>
        <time>2021-06-29T21:55:26Z</time>
      </trkpt>
      <trkpt lat="45.70296" lon="4.56772">
        <ele>843.032</ele>
        <time>2021-06-29T21:55:28Z</time>
      </trkpt>
      <trkpt lat="45.70293" lon="4.56763">
        <ele>843.544</ele>
        <time>2021-06-29T21:55:30Z</time>
      </trkpt>
      <trkpt lat="45.7029" lon="4.56751">
        <ele>844.005</ele>
        <time>2021-06-29T21:55:32Z</time>
      </trkpt>
      <trkpt lat="45.70288" lon="4.56744">
        <ele>844.215</ele>
        <time>2021-06-29T21:55:33Z</time>
      </trkpt>
      <trkpt lat="45.70288" lon="4.56737">
        <ele>844.508</ele>
        <time>2021-06-29T21:55:34Z</time>
      </trkpt>
      <trkpt lat="45.70286" lon="4.56727">
        <ele>845.051</ele>
        <time>2021-06-29T21:55:36Z</time>
      </trkpt>
      <trkpt lat="45.70282" lon="4.56716">
        <ele>845.641</ele>
        <time>2021-06-29T21:55:38Z</time>
      </trkpt>
      <trkpt lat="45.70278" lon="4.56704">
        <ele>846.124</ele>
        <time>2021-06-29T21:55:40Z</time>
      </trkpt>
      <trkpt lat="45.70276" lon="4.56698">
        <ele>846.289</ele>
        <time>2021-06-29T21:55:41Z</time>
      </trkpt>
      <trkpt lat="45.70273" lon="4.56692">
        <ele>846.394</ele>
        <time>2021-06-29T21:55:42Z</time>
      </trkpt>
      <trkpt lat="45.70269" lon="4.56688">
        <ele>846.463</ele>
        <time>2021-06-29T21:55:43Z</time>
      </trkpt>
      <trkpt lat="45.70265" lon="4.56683">
        <ele>846.499</ele>
        <time>2021-06-29T21:55:44Z</time>
      </trkpt>
      <trkpt lat="45.70261" lon="4.56679">
        <ele>846.567</ele>
        <time>2021-06-29T21:55:45Z</time>
      </trkpt>
      <trkpt lat="45.70257" lon="4.56675">
        <ele>846.616</ele>
        <time>2021-06-29T21:55:46Z</time>
      </trkpt>
      <trkpt lat="45.70253" lon="4.56671">
        <ele>846.876</ele>
        <time>2021-06-29T21:55:47Z</time>
      </trkpt>
      <trkpt lat="45.70247" lon="4.56665">
        <ele>847.213</ele>
        <time>2021-06-29T21:55:49Z</time>
      </trkpt>
      <trkpt lat="45.70241" lon="4.56662">
        <ele>847.708</ele>
        <time>2021-06-29T21:55:51Z</time>
      </trkpt>
      <trkpt lat="45.70234" lon="4.56659">
        <ele>848.468</ele>
        <time>2021-06-29T21:55:53Z</time>
      </trkpt>
      <trkpt lat="45.70228" lon="4.56656">
        <ele>849.338</ele>
        <time>2021-06-29T21:55:55Z</time>
      </trkpt>
      <trkpt lat="45.70223" lon="4.56654">
        <ele>850.311</ele>
        <time>2021-06-29T21:55:57Z</time>
      </trkpt>
      <trkpt lat="45.70216" lon="4.5665">
        <ele>851.176</ele>
        <time>2021-06-29T21:55:59Z</time>
      </trkpt>
      <trkpt lat="45.70213" lon="4.56646">
        <ele>852.091</ele>
        <time>2021-06-29T21:56:01Z</time>
      </trkpt>
      <trkpt lat="45.70207" lon="4.56644">
        <ele>852.96</ele>
        <time>2021-06-29T21:56:03Z</time>
      </trkpt>
      <trkpt lat="45.70202" lon="4.56639">
        <ele>853.846</ele>
        <time>2021-06-29T21:56:04Z</time>
      </trkpt>
      <trkpt lat="45.70198" lon="4.56632">
        <ele>854.814</ele>
        <time>2021-06-29T21:56:06Z</time>
      </trkpt>
      <trkpt lat="45.70194" lon="4.56627">
        <ele>855.972</ele>
        <time>2021-06-29T21:56:08Z</time>
      </trkpt>
      <trkpt lat="45.7019" lon="4.56622">
        <ele>857.013</ele>
        <time>2021-06-29T21:56:10Z</time>
      </trkpt>
      <trkpt lat="45.70187" lon="4.56615">
        <ele>857.914</ele>
        <time>2021-06-29T21:56:12Z</time>
      </trkpt>
      <trkpt lat="45.70184" lon="4.56606">
        <ele>858.908</ele>
        <time>2021-06-29T21:56:15Z</time>
      </trkpt>
      <trkpt lat="45.7018" lon="4.56601">
        <ele>859.334</ele>
        <time>2021-06-29T21:56:17Z</time>
      </trkpt>
      <trkpt lat="45.70177" lon="4.56595">
        <ele>859.734</ele>
        <time>2021-06-29T21:56:19Z</time>
      </trkpt>
      <trkpt lat="45.70175" lon="4.56588">
        <ele>860.277</ele>
        <time>2021-06-29T21:56:21Z</time>
      </trkpt>
      <trkpt lat="45.70172" lon="4.56582">
        <ele>860.752</ele>
        <time>2021-06-29T21:56:23Z</time>
      </trkpt>
      <trkpt lat="45.7017" lon="4.56573">
        <ele>861.397</ele>
        <time>2021-06-29T21:56:25Z</time>
      </trkpt>
      <trkpt lat="45.70168" lon="4.56564">
        <ele>861.936</ele>
        <time>2021-06-29T21:56:27Z</time>
      </trkpt>
      <trkpt lat="45.70166" lon="4.56557">
        <ele>862.832</ele>
        <time>2021-06-29T21:56:29Z</time>
      </trkpt>
      <trkpt lat="45.70164" lon="4.5655">
        <ele>863.93</ele>
        <time>2021-06-29T21:56:31Z</time>
      </trkpt>
      <trkpt lat="45.7016" lon="4.56542">
        <ele>865.147</ele>
        <time>2021-06-29T21:56:33Z</time>
      </trkpt>
      <trkpt lat="45.70158" lon="4.56536">
        <ele>866.429</ele>
        <time>2021-06-29T21:56:35Z</time>
      </trkpt>
      <trkpt lat="45.70156" lon="4.56526">
        <ele>867.621</ele>
        <time>2021-06-29T21:56:37Z</time>
      </trkpt>
      <trkpt lat="45.70155" lon="4.56517">
        <ele>868.908</ele>
        <time>2021-06-29T21:56:39Z</time>
      </trkpt>
      <trkpt lat="45.70154" lon="4.56509">
        <ele>870.211</ele>
        <time>2021-06-29T21:56:41Z</time>
      </trkpt>
      <trkpt lat="45.70152" lon="4.56503">
        <ele>871.321</ele>
        <time>2021-06-29T21:56:43Z</time>
      </trkpt>
      <trkpt lat="45.70151" lon="4.56496">
        <ele>872.214</ele>
        <time>2021-06-29T21:56:45Z</time>
      </trkpt>
      <trkpt lat="45.70151" lon="4.56489">
        <ele>873.089</ele>
        <time>2021-06-29T21:56:47Z</time>
      </trkpt>
      <trkpt lat="45.7015" lon="4.56482">
        <ele>873.964</ele>
        <time>2021-06-29T21:56:50Z</time>
      </trkpt>
      <trkpt lat="45.70148" lon="4.56476">
        <ele>874.443</ele>
        <time>2021-06-29T21:56:53Z</time>
      </trkpt>
      <trkpt lat="45.70147" lon="4.56468">
        <ele>874.829</ele>
        <time>2021-06-29T21:56:57Z</time>
      </trkpt>
      <trkpt lat="45.70146" lon="4.56461">
        <ele>875.537</ele>
        <time>2021-06-29T21:57:39Z</time>
      </trkpt>
      <trkpt lat="45.70149" lon="4.56454">
        <ele>876.334</ele>
        <time>2021-06-29T21:57:49Z</time>
      </trkpt>
      <trkpt lat="45.70151" lon="4.56448">
        <ele>875.855</ele>
        <time>2021-06-29T21:58:29Z</time>
      </trkpt>
      <trkpt lat="45.70151" lon="4.56456">
        <ele>875.71</ele>
        <time>2021-06-29T21:58:37Z</time>
      </trkpt>
      <trkpt lat="45.70142" lon="4.56453">
        <ele>876.608</ele>
        <time>2021-06-29T21:58:48Z</time>
      </trkpt>
      <trkpt lat="45.70137" lon="4.56451">
        <ele>877.49</ele>
        <time>2021-06-29T21:58:53Z</time>
      </trkpt>
      <trkpt lat="45.70133" lon="4.56448">
        <ele>878.37</ele>
        <time>2021-06-29T21:58:57Z</time>
      </trkpt>
      <trkpt lat="45.70128" lon="4.56444">
        <ele>879.323</ele>
        <time>2021-06-29T21:59:02Z</time>
      </trkpt>
      <trkpt lat="45.70122" lon="4.56441">
        <ele>879.538</ele>
        <time>2021-06-29T21:59:06Z</time>
      </trkpt>
      <trkpt lat="45.70116" lon="4.56441">
        <ele>880.293</ele>
        <time>2021-06-29T21:59:10Z</time>
      </trkpt>
      <trkpt lat="45.70111" lon="4.56442">
        <ele>880.952</ele>
        <time>2021-06-29T21:59:14Z</time>
      </trkpt>
      <trkpt lat="45.70105" lon="4.56445">
        <ele>881.638</ele>
        <time>2021-06-29T21:59:18Z</time>
      </trkpt>
      <trkpt lat="45.70098" lon="4.56447">
        <ele>882.036</ele>
        <time>2021-06-29T21:59:21Z</time>
      </trkpt>
      <trkpt lat="45.70093" lon="4.5645">
        <ele>882.372</ele>
        <time>2021-06-29T21:59:24Z</time>
      </trkpt>
      <trkpt lat="45.70086" lon="4.56452">
        <ele>882.613</ele>
        <time>2021-06-29T21:59:27Z</time>
      </trkpt>
      <trkpt lat="45.70082" lon="4.56456">
        <ele>882.814</ele>
        <time>2021-06-29T21:59:29Z</time>
      </trkpt>
      <trkpt lat="45.70076" lon="4.5646">
        <ele>883.008</ele>
        <time>2021-06-29T21:59:31Z</time>
      </trkpt>
      <trkpt lat="45.7007" lon="4.56463">
        <ele>883.354</ele>
        <time>2021-06-29T21:59:34Z</time>
      </trkpt>
      <trkpt lat="45.70065" lon="4.56465">
        <ele>883.484</ele>
        <time>2021-06-29T21:59:36Z</time>
      </trkpt>
      <trkpt lat="45.70059" lon="4.56468">
        <ele>883.537</ele>
        <time>2021-06-29T21:59:38Z</time>
      </trkpt>
      <trkpt lat="45.70054" lon="4.56471">
        <ele>883.752</ele>
        <time>2021-06-29T21:59:40Z</time>
      </trkpt>
      <trkpt lat="45.70049" lon="4.56473">
        <ele>883.937</ele>
        <time>2021-06-29T21:59:42Z</time>
      </trkpt>
      <trkpt lat="45.70044" lon="4.56475">
        <ele>884.386</ele>
        <time>2021-06-29T21:59:45Z</time>
      </trkpt>
      <trkpt lat="45.70039" lon="4.56475">
        <ele>884.442</ele>
        <time>2021-06-29T21:59:50Z</time>
      </trkpt>
      <trkpt lat="45.70035" lon="4.56481">
        <ele>885.26</ele>
        <time>2021-06-29T22:00:01Z</time>
      </trkpt>
      <trkpt lat="45.70031" lon="4.56487">
        <ele>885.165</ele>
        <time>2021-06-29T22:00:04Z</time>
      </trkpt>
      <trkpt lat="45.70028" lon="4.56492">
        <ele>884.768</ele>
        <time>2021-06-29T22:00:06Z</time>
      </trkpt>
      <trkpt lat="45.70026" lon="4.56499">
        <ele>884.014</ele>
        <time>2021-06-29T22:00:08Z</time>
      </trkpt>
      <trkpt lat="45.70023" lon="4.56505">
        <ele>883.308</ele>
        <time>2021-06-29T22:00:10Z</time>
      </trkpt>
      <trkpt lat="45.7002" lon="4.56513">
        <ele>882.733</ele>
        <time>2021-06-29T22:00:12Z</time>
      </trkpt>
      <trkpt lat="45.70018" lon="4.56521">
        <ele>882.353</ele>
        <time>2021-06-29T22:00:14Z</time>
      </trkpt>
      <trkpt lat="45.70014" lon="4.56528">
        <ele>882.086</ele>
        <time>2021-06-29T22:00:16Z</time>
      </trkpt>
      <trkpt lat="45.70011" lon="4.56534">
        <ele>881.811</ele>
        <time>2021-06-29T22:00:18Z</time>
      </trkpt>
      <trkpt lat="45.70008" lon="4.56541">
        <ele>881.736</ele>
        <time>2021-06-29T22:00:20Z</time>
      </trkpt>
      <trkpt lat="45.70002" lon="4.5655">
        <ele>882.045</ele>
        <time>2021-06-29T22:00:22Z</time>
      </trkpt>
      <trkpt lat="45.69997" lon="4.56555">
        <ele>882.331</ele>
        <time>2021-06-29T22:00:23Z</time>
      </trkpt>
      <trkpt lat="45.69993" lon="4.56559">
        <ele>882.719</ele>
        <time>2021-06-29T22:00:24Z</time>
      </trkpt>
      <trkpt lat="45.69988" lon="4.56564">
        <ele>883.259</ele>
        <time>2021-06-29T22:00:25Z</time>
      </trkpt>
      <trkpt lat="45.69983" lon="4.56567">
        <ele>883.703</ele>
        <time>2021-06-29T22:00:26Z</time>
      </trkpt>
      <trkpt lat="45.69981" lon="4.56574">
        <ele>885.223</ele>
        <time>2021-06-29T22:00:29Z</time>
      </trkpt>
      <trkpt lat="45.69977" lon="4.56578">
        <ele>886.108</ele>
        <time>2021-06-29T22:00:33Z</time>
      </trkpt>
      <trkpt lat="45.69973" lon="4.56584">
        <ele>886.492</ele>
        <time>2021-06-29T22:00:35Z</time>
      </trkpt>
      <trkpt lat="45.6997" lon="4.56592">
        <ele>886.932</ele>
        <time>2021-06-29T22:00:37Z</time>
      </trkpt>
      <trkpt lat="45.69965" lon="4.56598">
        <ele>887.435</ele>
        <time>2021-06-29T22:00:39Z</time>
      </trkpt>
      <trkpt lat="45.6996" lon="4.56606">
        <ele>887.98</ele>
        <time>2021-06-29T22:00:41Z</time>
      </trkpt>
      <trkpt lat="45.69956" lon="4.56611">
        <ele>888.125</ele>
        <time>2021-06-29T22:00:42Z</time>
      </trkpt>
      <trkpt lat="45.69951" lon="4.5662">
        <ele>888.774</ele>
        <time>2021-06-29T22:00:44Z</time>
      </trkpt>
      <trkpt lat="45.69947" lon="4.56625">
        <ele>889.06</ele>
        <time>2021-06-29T22:00:45Z</time>
      </trkpt>
      <trkpt lat="45.6994" lon="4.56634">
        <ele>889.518</ele>
        <time>2021-06-29T22:00:47Z</time>
      </trkpt>
      <trkpt lat="45.69935" lon="4.56642">
        <ele>890.077</ele>
        <time>2021-06-29T22:00:49Z</time>
      </trkpt>
      <trkpt lat="45.69929" lon="4.56652">
        <ele>890.561</ele>
        <time>2021-06-29T22:00:51Z</time>
      </trkpt>
      <trkpt lat="45.69926" lon="4.56658">
        <ele>890.727</ele>
        <time>2021-06-29T22:00:52Z</time>
      </trkpt>
      <trkpt lat="45.69924" lon="4.56663">
        <ele>891.008</ele>
        <time>2021-06-29T22:00:53Z</time>
      </trkpt>
      <trkpt lat="45.69918" lon="4.56675">
        <ele>891.684</ele>
        <time>2021-06-29T22:00:55Z</time>
      </trkpt>
      <trkpt lat="45.69916" lon="4.5668">
        <ele>892.134</ele>
        <time>2021-06-29T22:00:56Z</time>
      </trkpt>
      <trkpt lat="45.69913" lon="4.56687">
        <ele>892.897</ele>
        <time>2021-06-29T22:00:57Z</time>
      </trkpt>
      <trkpt lat="45.69909" lon="4.56693">
        <ele>894.122</ele>
        <time>2021-06-29T22:00:59Z</time>
      </trkpt>
      <trkpt lat="45.69907" lon="4.56699">
        <ele>894.997</ele>
        <time>2021-06-29T22:01:01Z</time>
      </trkpt>
      <trkpt lat="45.69902" lon="4.56704">
        <ele>895.136</ele>
        <time>2021-06-29T22:01:03Z</time>
      </trkpt>
      <trkpt lat="45.69898" lon="4.5671">
        <ele>895.462</ele>
        <time>2021-06-29T22:01:05Z</time>
      </trkpt>
      <trkpt lat="45.69897" lon="4.56717">
        <ele>895.77</ele>
        <time>2021-06-29T22:01:07Z</time>
      </trkpt>
      <trkpt lat="45.69893" lon="4.56724">
        <ele>896.074</ele>
        <time>2021-06-29T22:01:09Z</time>
      </trkpt>
      <trkpt lat="45.69887" lon="4.56731">
        <ele>896.156</ele>
        <time>2021-06-29T22:01:11Z</time>
      </trkpt>
      <trkpt lat="45.69883" lon="4.56734">
        <ele>896.121</ele>
        <time>2021-06-29T22:01:13Z</time>
      </trkpt>
      <trkpt lat="45.69879" lon="4.56739">
        <ele>896.108</ele>
        <time>2021-06-29T22:01:15Z</time>
      </trkpt>
      <trkpt lat="45.69875" lon="4.56742">
        <ele>896.154</ele>
        <time>2021-06-29T22:01:17Z</time>
      </trkpt>
      <trkpt lat="45.69869" lon="4.56746">
        <ele>896.244</ele>
        <time>2021-06-29T22:01:19Z</time>
      </trkpt>
      <trkpt lat="45.69863" lon="4.56752">
        <ele>896.427</ele>
        <time>2021-06-29T22:01:21Z</time>
      </trkpt>
      <trkpt lat="45.69857" lon="4.56754">
        <ele>896.542</ele>
        <time>2021-06-29T22:01:23Z</time>
      </trkpt>
      <trkpt lat="45.69852" lon="4.56759">
        <ele>896.537</ele>
        <time>2021-06-29T22:01:25Z</time>
      </trkpt>
      <trkpt lat="45.69848" lon="4.56763">
        <ele>896.566</ele>
        <time>2021-06-29T22:01:27Z</time>
      </trkpt>
      <trkpt lat="45.69842" lon="4.56772">
        <ele>896.452</ele>
        <time>2021-06-29T22:01:34Z</time>
      </trkpt>
      <trkpt lat="45.69838" lon="4.56776">
        <ele>896.47</ele>
        <time>2021-06-29T22:01:36Z</time>
      </trkpt>
      <trkpt lat="45.69832" lon="4.56781">
        <ele>896.486</ele>
        <time>2021-06-29T22:01:38Z</time>
      </trkpt>
      <trkpt lat="45.69827" lon="4.56786">
        <ele>896.56</ele>
        <time>2021-06-29T22:01:40Z</time>
      </trkpt>
      <trkpt lat="45.69822" lon="4.56792">
        <ele>896.526</ele>
        <time>2021-06-29T22:01:42Z</time>
      </trkpt>
      <trkpt lat="45.69815" lon="4.56799">
        <ele>896.608</ele>
        <time>2021-06-29T22:01:44Z</time>
      </trkpt>
      <trkpt lat="45.6981" lon="4.56806">
        <ele>896.715</ele>
        <time>2021-06-29T22:01:46Z</time>
      </trkpt>
      <trkpt lat="45.69805" lon="4.56813">
        <ele>896.735</ele>
        <time>2021-06-29T22:01:48Z</time>
      </trkpt>
      <trkpt lat="45.69801" lon="4.56817">
        <ele>896.448</ele>
        <time>2021-06-29T22:01:50Z</time>
      </trkpt>
      <trkpt lat="45.69796" lon="4.56822">
        <ele>895.853</ele>
        <time>2021-06-29T22:01:52Z</time>
      </trkpt>
      <trkpt lat="45.69791" lon="4.56828">
        <ele>895.268</ele>
        <time>2021-06-29T22:01:54Z</time>
      </trkpt>
      <trkpt lat="45.69786" lon="4.56836">
        <ele>894.757</ele>
        <time>2021-06-29T22:01:56Z</time>
      </trkpt>
      <trkpt lat="45.69781" lon="4.56843">
        <ele>894.263</ele>
        <time>2021-06-29T22:01:58Z</time>
      </trkpt>
      <trkpt lat="45.69777" lon="4.56849">
        <ele>893.711</ele>
        <time>2021-06-29T22:02:00Z</time>
      </trkpt>
      <trkpt lat="45.69774" lon="4.56855">
        <ele>893.218</ele>
        <time>2021-06-29T22:02:02Z</time>
      </trkpt>
      <trkpt lat="45.6977" lon="4.56863">
        <ele>892.798</ele>
        <time>2021-06-29T22:02:04Z</time>
      </trkpt>
      <trkpt lat="45.69766" lon="4.56872">
        <ele>892.217</ele>
        <time>2021-06-29T22:02:06Z</time>
      </trkpt>
      <trkpt lat="45.69761" lon="4.56879">
        <ele>891.808</ele>
        <time>2021-06-29T22:02:08Z</time>
      </trkpt>
      <trkpt lat="45.69756" lon="4.56885">
        <ele>891.468</ele>
        <time>2021-06-29T22:02:10Z</time>
      </trkpt>
      <trkpt lat="45.69752" lon="4.56889">
        <ele>891.238</ele>
        <time>2021-06-29T22:02:11Z</time>
      </trkpt>
      <trkpt lat="45.69746" lon="4.56896">
        <ele>890.821</ele>
        <time>2021-06-29T22:02:13Z</time>
      </trkpt>
      <trkpt lat="45.69742" lon="4.56901">
        <ele>890.466</ele>
        <time>2021-06-29T22:02:15Z</time>
      </trkpt>
      <trkpt lat="45.69739" lon="4.56907">
        <ele>889.831</ele>
        <time>2021-06-29T22:02:17Z</time>
      </trkpt>
      <trkpt lat="45.69735" lon="4.56912">
        <ele>888.73</ele>
        <time>2021-06-29T22:02:21Z</time>
      </trkpt>
      <trkpt lat="45.69733" lon="4.56918">
        <ele>888.366</ele>
        <time>2021-06-29T22:02:24Z</time>
      </trkpt>
      <trkpt lat="45.6973" lon="4.56923">
        <ele>887.934</ele>
        <time>2021-06-29T22:02:27Z</time>
      </trkpt>
      <trkpt lat="45.69727" lon="4.56929">
        <ele>887.437</ele>
        <time>2021-06-29T22:02:30Z</time>
      </trkpt>
      <trkpt lat="45.69725" lon="4.56936">
        <ele>886.749</ele>
        <time>2021-06-29T22:02:33Z</time>
      </trkpt>
      <trkpt lat="45.69722" lon="4.56942">
        <ele>885.913</ele>
        <time>2021-06-29T22:02:36Z</time>
      </trkpt>
      <trkpt lat="45.69718" lon="4.56945">
        <ele>885.108</ele>
        <time>2021-06-29T22:02:40Z</time>
      </trkpt>
      <trkpt lat="45.69713" lon="4.56948">
        <ele>884.36</ele>
        <time>2021-06-29T22:02:43Z</time>
      </trkpt>
      <trkpt lat="45.6971" lon="4.56953">
        <ele>882.86</ele>
        <time>2021-06-29T22:02:55Z</time>
      </trkpt>
      <trkpt lat="45.69705" lon="4.56955">
        <ele>882.413</ele>
        <time>2021-06-29T22:03:00Z</time>
      </trkpt>
      <trkpt lat="45.69701" lon="4.56959">
        <ele>881.368</ele>
        <time>2021-06-29T22:03:04Z</time>
      </trkpt>
      <trkpt lat="45.69697" lon="4.56963">
        <ele>880.513</ele>
        <time>2021-06-29T22:03:07Z</time>
      </trkpt>
      <trkpt lat="45.69692" lon="4.56964">
        <ele>879.412</ele>
        <time>2021-06-29T22:03:11Z</time>
      </trkpt>
      <trkpt lat="45.69687" lon="4.56966">
        <ele>878.168</ele>
        <time>2021-06-29T22:03:16Z</time>
      </trkpt>
      <trkpt lat="45.69682" lon="4.56969">
        <ele>877.166</ele>
        <time>2021-06-29T22:03:20Z</time>
      </trkpt>
      <trkpt lat="45.69677" lon="4.56972">
        <ele>876.042</ele>
        <time>2021-06-29T22:03:25Z</time>
      </trkpt>
      <trkpt lat="45.69674" lon="4.56977">
        <ele>875.122</ele>
        <time>2021-06-29T22:03:30Z</time>
      </trkpt>
      <trkpt lat="45.69672" lon="4.56983">
        <ele>874.714</ele>
        <time>2021-06-29T22:03:34Z</time>
      </trkpt>
      <trkpt lat="45.6967" lon="4.5699">
        <ele>873.508</ele>
        <time>2021-06-29T22:03:39Z</time>
      </trkpt>
      <trkpt lat="45.69669" lon="4.56997">
        <ele>872.431</ele>
        <time>2021-06-29T22:03:43Z</time>
      </trkpt>
      <trkpt lat="45.69669" lon="4.57004">
        <ele>871.841</ele>
        <time>2021-06-29T22:03:46Z</time>
      </trkpt>
      <trkpt lat="45.69669" lon="4.5701">
        <ele>870.774</ele>
        <time>2021-06-29T22:03:50Z</time>
      </trkpt>
      <trkpt lat="45.69667" lon="4.57017">
        <ele>869.979</ele>
        <time>2021-06-29T22:03:54Z</time>
      </trkpt>
      <trkpt lat="45.69667" lon="4.57024">
        <ele>868.794</ele>
        <time>2021-06-29T22:03:59Z</time>
      </trkpt>
      <trkpt lat="45.69666" lon="4.57031">
        <ele>868.143</ele>
        <time>2021-06-29T22:04:02Z</time>
      </trkpt>
      <trkpt lat="45.69666" lon="4.57039">
        <ele>867.539</ele>
        <time>2021-06-29T22:04:05Z</time>
      </trkpt>
      <trkpt lat="45.69666" lon="4.57048">
        <ele>866.977</ele>
        <time>2021-06-29T22:04:08Z</time>
      </trkpt>
      <trkpt lat="45.69668" lon="4.57055">
        <ele>866.045</ele>
        <time>2021-06-29T22:04:12Z</time>
      </trkpt>
      <trkpt lat="45.69668" lon="4.57062">
        <ele>865.347</ele>
        <time>2021-06-29T22:04:16Z</time>
      </trkpt>
      <trkpt lat="45.6967" lon="4.5707">
        <ele>864.511</ele>
        <time>2021-06-29T22:04:20Z</time>
      </trkpt>
      <trkpt lat="45.69671" lon="4.57078">
        <ele>863.308</ele>
        <time>2021-06-29T22:04:25Z</time>
      </trkpt>
      <trkpt lat="45.69671" lon="4.57085">
        <ele>862.831</ele>
        <time>2021-06-29T22:04:28Z</time>
      </trkpt>
      <trkpt lat="45.69669" lon="4.57092">
        <ele>862.431</ele>
        <time>2021-06-29T22:04:33Z</time>
      </trkpt>
      <trkpt lat="45.69666" lon="4.57098">
        <ele>861.724</ele>
        <time>2021-06-29T22:04:36Z</time>
      </trkpt>
      <trkpt lat="45.69663" lon="4.57104">
        <ele>860.889</ele>
        <time>2021-06-29T22:04:39Z</time>
      </trkpt>
      <trkpt lat="45.6966" lon="4.57109">
        <ele>860.234</ele>
        <time>2021-06-29T22:04:41Z</time>
      </trkpt>
      <trkpt lat="45.69656" lon="4.57116">
        <ele>859.163</ele>
        <time>2021-06-29T22:04:45Z</time>
      </trkpt>
      <trkpt lat="45.69653" lon="4.57122">
        <ele>857.939</ele>
        <time>2021-06-29T22:04:49Z</time>
      </trkpt>
      <trkpt lat="45.69649" lon="4.57127">
        <ele>856.997</ele>
        <time>2021-06-29T22:04:52Z</time>
      </trkpt>
      <trkpt lat="45.69645" lon="4.57132">
        <ele>856.198</ele>
        <time>2021-06-29T22:04:55Z</time>
      </trkpt>
      <trkpt lat="45.69641" lon="4.57138">
        <ele>855.215</ele>
        <time>2021-06-29T22:04:58Z</time>
      </trkpt>
      <trkpt lat="45.69637" lon="4.57144">
        <ele>854.226</ele>
        <time>2021-06-29T22:05:01Z</time>
      </trkpt>
      <trkpt lat="45.69633" lon="4.57147">
        <ele>853.708</ele>
        <time>2021-06-29T22:05:03Z</time>
      </trkpt>
      <trkpt lat="45.69629" lon="4.5715">
        <ele>853.256</ele>
        <time>2021-06-29T22:05:05Z</time>
      </trkpt>
      <trkpt lat="45.69624" lon="4.57155">
        <ele>852.476</ele>
        <time>2021-06-29T22:05:08Z</time>
      </trkpt>
      <trkpt lat="45.69619" lon="4.57159">
        <ele>851.559</ele>
        <time>2021-06-29T22:05:11Z</time>
      </trkpt>
      <trkpt lat="45.69615" lon="4.57162">
        <ele>850.194</ele>
        <time>2021-06-29T22:05:16Z</time>
      </trkpt>
      <trkpt lat="45.69612" lon="4.57168">
        <ele>848.939</ele>
        <time>2021-06-29T22:05:21Z</time>
      </trkpt>
      <trkpt lat="45.69611" lon="4.57175">
        <ele>847.838</ele>
        <time>2021-06-29T22:05:25Z</time>
      </trkpt>
      <trkpt lat="45.69609" lon="4.57183">
        <ele>846.754</ele>
        <time>2021-06-29T22:05:29Z</time>
      </trkpt>
      <trkpt lat="45.69606" lon="4.57189">
        <ele>845.852</ele>
        <time>2021-06-29T22:05:32Z</time>
      </trkpt>
      <trkpt lat="45.69605" lon="4.57195">
        <ele>844.833</ele>
        <time>2021-06-29T22:05:35Z</time>
      </trkpt>
      <trkpt lat="45.69603" lon="4.57202">
        <ele>844.123</ele>
        <time>2021-06-29T22:05:37Z</time>
      </trkpt>
      <trkpt lat="45.69601" lon="4.5721">
        <ele>843.215</ele>
        <time>2021-06-29T22:05:40Z</time>
      </trkpt>
      <trkpt lat="45.69597" lon="4.57217">
        <ele>842.108</ele>
        <time>2021-06-29T22:05:43Z</time>
      </trkpt>
      <trkpt lat="45.69594" lon="4.57223">
        <ele>840.75</ele>
        <time>2021-06-29T22:05:47Z</time>
      </trkpt>
      <trkpt lat="45.69592" lon="4.57229">
        <ele>839.92</ele>
        <time>2021-06-29T22:05:50Z</time>
      </trkpt>
      <trkpt lat="45.6959" lon="4.57236">
        <ele>839.283</ele>
        <time>2021-06-29T22:05:53Z</time>
      </trkpt>
      <trkpt lat="45.69588" lon="4.57243">
        <ele>838.088</ele>
        <time>2021-06-29T22:05:58Z</time>
      </trkpt>
      <trkpt lat="45.69585" lon="4.57249">
        <ele>837.883</ele>
        <time>2021-06-29T22:05:59Z</time>
      </trkpt>
      <trkpt lat="45.69583" lon="4.57255">
        <ele>837.552</ele>
        <time>2021-06-29T22:06:00Z</time>
      </trkpt>
      <trkpt lat="45.69582" lon="4.57263">
        <ele>836.268</ele>
        <time>2021-06-29T22:06:02Z</time>
      </trkpt>
      <trkpt lat="45.69581" lon="4.57271">
        <ele>833.826</ele>
        <time>2021-06-29T22:06:05Z</time>
      </trkpt>
      <trkpt lat="45.69577" lon="4.57278">
        <ele>832.494</ele>
        <time>2021-06-29T22:06:08Z</time>
      </trkpt>
      <trkpt lat="45.69573" lon="4.57284">
        <ele>831.757</ele>
        <time>2021-06-29T22:06:10Z</time>
      </trkpt>
      <trkpt lat="45.6957" lon="4.5729">
        <ele>830.922</ele>
        <time>2021-06-29T22:06:12Z</time>
      </trkpt>
      <trkpt lat="45.69564" lon="4.57295">
        <ele>829.908</ele>
        <time>2021-06-29T22:06:14Z</time>
      </trkpt>
      <trkpt lat="45.6956" lon="4.573">
        <ele>828.766</ele>
        <time>2021-06-29T22:06:16Z</time>
      </trkpt>
      <trkpt lat="45.69554" lon="4.57304">
        <ele>826.836</ele>
        <time>2021-06-29T22:06:19Z</time>
      </trkpt>
      <trkpt lat="45.69549" lon="4.57307">
        <ele>825.899</ele>
        <time>2021-06-29T22:06:21Z</time>
      </trkpt>
      <trkpt lat="45.69544" lon="4.5731">
        <ele>824.984</ele>
        <time>2021-06-29T22:06:23Z</time>
      </trkpt>
      <trkpt lat="45.6954" lon="4.57313">
        <ele>823.969</ele>
        <time>2021-06-29T22:06:25Z</time>
      </trkpt>
      <trkpt lat="45.69536" lon="4.57318">
        <ele>822.138</ele>
        <time>2021-06-29T22:06:28Z</time>
      </trkpt>
      <trkpt lat="45.69532" lon="4.57322">
        <ele>820.414</ele>
        <time>2021-06-29T22:06:33Z</time>
      </trkpt>
      <trkpt lat="45.6953" lon="4.57329">
        <ele>820.012</ele>
        <time>2021-06-29T22:06:36Z</time>
      </trkpt>
      <trkpt lat="45.69528" lon="4.57337">
        <ele>819.331</ele>
        <time>2021-06-29T22:06:39Z</time>
      </trkpt>
      <trkpt lat="45.69527" lon="4.57346">
        <ele>818.461</ele>
        <time>2021-06-29T22:06:42Z</time>
      </trkpt>
      <trkpt lat="45.69524" lon="4.57354">
        <ele>817.207</ele>
        <time>2021-06-29T22:06:45Z</time>
      </trkpt>
      <trkpt lat="45.69522" lon="4.57364">
        <ele>815.908</ele>
        <time>2021-06-29T22:06:48Z</time>
      </trkpt>
      <trkpt lat="45.6952" lon="4.5737">
        <ele>815.03</ele>
        <time>2021-06-29T22:06:50Z</time>
      </trkpt>
      <trkpt lat="45.69517" lon="4.57379">
        <ele>814.08</ele>
        <time>2021-06-29T22:06:52Z</time>
      </trkpt>
      <trkpt lat="45.69514" lon="4.57387">
        <ele>812.853</ele>
        <time>2021-06-29T22:06:54Z</time>
      </trkpt>
      <trkpt lat="45.69511" lon="4.57395">
        <ele>810.688</ele>
        <time>2021-06-29T22:06:57Z</time>
      </trkpt>
      <trkpt lat="45.69509" lon="4.57401">
        <ele>808.813</ele>
        <time>2021-06-29T22:07:00Z</time>
      </trkpt>
      <trkpt lat="45.69506" lon="4.57411">
        <ele>807.652</ele>
        <time>2021-06-29T22:07:03Z</time>
      </trkpt>
      <trkpt lat="45.69502" lon="4.57421">
        <ele>806.778</ele>
        <time>2021-06-29T22:07:05Z</time>
      </trkpt>
      <trkpt lat="45.69499" lon="4.5743">
        <ele>805.376</ele>
        <time>2021-06-29T22:07:07Z</time>
      </trkpt>
      <trkpt lat="45.69497" lon="4.57438">
        <ele>803.525</ele>
        <time>2021-06-29T22:07:09Z</time>
      </trkpt>
      <trkpt lat="45.69496" lon="4.57446">
        <ele>801.126</ele>
        <time>2021-06-29T22:07:12Z</time>
      </trkpt>
      <trkpt lat="45.69494" lon="4.57453">
        <ele>799.608</ele>
        <time>2021-06-29T22:07:15Z</time>
      </trkpt>
      <trkpt lat="45.69494" lon="4.57463">
        <ele>798.308</ele>
        <time>2021-06-29T22:07:19Z</time>
      </trkpt>
      <trkpt lat="45.69493" lon="4.57471">
        <ele>797.529</ele>
        <time>2021-06-29T22:07:21Z</time>
      </trkpt>
      <trkpt lat="45.69492" lon="4.5748">
        <ele>795.469</ele>
        <time>2021-06-29T22:07:30Z</time>
      </trkpt>
      <trkpt lat="45.69492" lon="4.57489">
        <ele>795.332</ele>
        <time>2021-06-29T22:07:32Z</time>
      </trkpt>
      <trkpt lat="45.69491" lon="4.575">
        <ele>794.927</ele>
        <time>2021-06-29T22:07:34Z</time>
      </trkpt>
      <trkpt lat="45.6949" lon="4.57509">
        <ele>794.062</ele>
        <time>2021-06-29T22:07:36Z</time>
      </trkpt>
      <trkpt lat="45.6949" lon="4.57516">
        <ele>793.061</ele>
        <time>2021-06-29T22:07:38Z</time>
      </trkpt>
      <trkpt lat="45.6949" lon="4.57526">
        <ele>791.817</ele>
        <time>2021-06-29T22:07:41Z</time>
      </trkpt>
      <trkpt lat="45.69489" lon="4.57534">
        <ele>790.245</ele>
        <time>2021-06-29T22:07:49Z</time>
      </trkpt>
      <trkpt lat="45.69494" lon="4.57543">
        <ele>790.016</ele>
        <time>2021-06-29T22:07:51Z</time>
      </trkpt>
      <trkpt lat="45.695" lon="4.57545">
        <ele>789.976</ele>
        <time>2021-06-29T22:07:52Z</time>
      </trkpt>
      <trkpt lat="45.69507" lon="4.57545">
        <ele>789.913</ele>
        <time>2021-06-29T22:07:53Z</time>
      </trkpt>
      <trkpt lat="45.69515" lon="4.57544">
        <ele>789.908</ele>
        <time>2021-06-29T22:07:54Z</time>
      </trkpt>
      <trkpt lat="45.69524" lon="4.57542">
        <ele>789.988</ele>
        <time>2021-06-29T22:07:55Z</time>
      </trkpt>
    </trkseg>
  </trk>
</gpx>